createdAt,value
2022-08-02T00:01:01.660Z,17.06
2022-08-02T00:03:29.952Z,17.06
2022-08-02T00:05:59.021Z,17.01
2022-08-02T00:08:28.910Z,17.06
2022-08-02T00:10:57.105Z,17.06
2022-08-02T00:13:25.317Z,17.05
2022-08-02T00:15:53.796Z,16.98
2022-08-02T00:18:22.027Z,17.00
2022-08-02T00:20:50.205Z,16.74
2022-08-02T00:27:09.106Z,16.90
2022-08-02T00:29:50.491Z,16.89
2022-08-02T00:32:20.534Z,16.96
2022-08-02T00:34:48.733Z,16.90
2022-08-02T00:37:17.227Z,16.88
2022-08-02T00:39:45.491Z,16.70
2022-08-02T00:42:16.942Z,16.92
2022-08-02T00:44:45.137Z,16.89
2022-08-02T00:47:14.966Z,16.80
2022-08-02T00:49:47.897Z,16.94
2022-08-02T00:52:16.147Z,16.98
2022-08-02T00:54:44.366Z,17.02
2022-08-02T00:57:12.553Z,16.85
2022-08-02T00:59:42.543Z,17.03
2022-08-02T01:02:11.141Z,17.18
2022-08-02T01:04:39.537Z,17.06
2022-08-02T01:07:12.628Z,17.09
2022-08-02T01:09:43.195Z,17.10
2022-08-02T01:12:12.253Z,17.04
2022-08-02T01:14:42.205Z,17.08
2022-08-02T01:17:12.026Z,17.08
2022-08-02T01:23:01.171Z,16.84
2022-08-02T01:25:39.159Z,17.01
2022-08-02T01:28:23.370Z,17.04
2022-08-02T01:30:51.971Z,16.83
2022-08-02T01:33:21.928Z,16.90
2022-08-02T01:35:54.277Z,16.93
2022-08-02T01:38:25.376Z,16.75
2022-08-02T01:40:53.567Z,16.81
2022-08-02T01:43:23.176Z,16.86
2022-08-02T01:45:51.388Z,16.69
2022-08-02T01:48:19.628Z,16.90
2022-08-02T01:50:47.831Z,16.83
2022-08-02T01:53:16.036Z,16.89
2022-08-02T01:55:58.304Z,16.91
2022-08-02T01:58:30.016Z,16.91
2022-08-02T02:00:59.111Z,16.83
2022-08-02T02:03:27.416Z,16.89
2022-08-02T02:05:57.675Z,16.90
2022-08-02T02:08:27.926Z,16.90
2022-08-02T02:10:56.342Z,16.80
2022-08-02T02:13:33.583Z,16.95
2022-08-02T02:16:04.745Z,16.80
2022-08-02T02:18:33.223Z,16.69
2022-08-02T02:21:01.433Z,16.75
2022-08-02T02:23:32.142Z,16.84
2022-08-02T02:26:04.584Z,16.76
2022-08-02T02:28:34.184Z,16.77
2022-08-02T02:31:05.154Z,16.77
2022-08-02T02:33:33.396Z,16.83
2022-08-02T02:36:02.061Z,16.92
2022-08-02T02:38:32.717Z,16.96
2022-08-02T02:41:02.284Z,16.93
2022-08-02T02:43:30.490Z,16.93
2022-08-02T02:45:58.694Z,16.95
2022-08-02T02:48:28.504Z,16.97
2022-08-02T02:50:56.787Z,16.95
2022-08-02T02:53:24.975Z,16.87
2022-08-02T02:56:02.502Z,16.80
2022-08-02T02:58:31.838Z,16.88
2022-08-02T03:01:13.873Z,16.80
2022-08-02T03:03:44.588Z,16.68
2022-08-02T03:06:14.971Z,16.73
2022-08-02T03:08:44.086Z,16.77
2022-08-02T03:11:12.289Z,16.79
2022-08-02T03:13:40.825Z,16.60
2022-08-02T03:16:09.037Z,16.63
2022-08-02T03:18:37.976Z,16.70
2022-08-02T03:21:09.458Z,16.76
2022-08-02T03:23:37.645Z,16.73
2022-08-02T03:26:05.881Z,16.71
2022-08-02T03:28:34.452Z,16.66
2022-08-02T03:31:02.749Z,16.66
2022-08-02T03:33:31.425Z,16.70
2022-08-02T03:36:00.672Z,16.66
2022-08-02T03:38:31.324Z,16.70
2022-08-02T03:40:59.685Z,16.54
2022-08-02T03:43:28.619Z,16.55
2022-08-02T03:45:57.153Z,16.64
2022-08-02T03:48:34.946Z,16.69
2022-08-02T03:51:03.852Z,16.60
2022-08-02T03:53:33.963Z,16.58
2022-08-02T03:56:02.204Z,16.65
2022-08-02T03:58:30.708Z,16.64
2022-08-02T04:00:59.282Z,16.63
2022-08-02T04:03:27.673Z,16.58
2022-08-02T04:06:05.477Z,16.63
2022-08-02T04:08:38.386Z,16.57
2022-08-02T04:11:20.988Z,16.61
2022-08-02T04:13:49.809Z,16.55
2022-08-02T04:16:21.813Z,16.49
2022-08-02T04:18:53.200Z,16.60
2022-08-02T04:21:22.245Z,16.52
2022-08-02T04:23:51.945Z,16.60
2022-08-02T04:26:21.885Z,16.62
2022-08-02T04:28:55.489Z,16.51
2022-08-02T04:31:23.743Z,16.65
2022-08-02T04:33:52.310Z,16.71
2022-08-02T04:36:31.234Z,16.76
2022-08-02T04:39:01.545Z,16.78
2022-08-02T04:41:43.785Z,16.78
2022-08-02T04:44:12.376Z,16.89
2022-08-02T04:46:40.704Z,16.89
2022-08-02T04:49:09.065Z,16.93
2022-08-02T04:51:38.444Z,16.97
2022-08-02T04:54:09.904Z,16.93
2022-08-02T04:56:38.637Z,17.02
2022-08-02T04:59:07.234Z,17.13
2022-08-02T05:01:35.863Z,17.17
2022-08-02T05:04:04.208Z,17.32
2022-08-02T05:06:32.513Z,17.26
2022-08-02T05:09:01.139Z,17.49
2022-08-02T05:11:36.519Z,17.52
2022-08-02T05:14:05.799Z,17.53
2022-08-02T05:16:34.329Z,17.49
2022-08-02T05:19:02.768Z,17.47
2022-08-02T05:21:31.861Z,17.50
2022-08-02T05:24:01.631Z,17.62
2022-08-02T05:26:31.273Z,17.65
2022-08-02T05:28:59.507Z,17.62
2022-08-02T05:31:28.025Z,17.72
2022-08-02T05:33:56.269Z,17.70
2022-08-02T05:36:24.525Z,17.74
2022-08-02T05:38:59.686Z,17.75
2022-08-02T05:41:34.812Z,17.82
2022-08-02T05:44:03.060Z,17.73
2022-08-02T05:46:31.608Z,17.79
2022-08-02T05:48:59.876Z,17.82
2022-08-02T05:51:32.465Z,17.91
2022-08-02T05:54:04.017Z,18.14
2022-08-02T05:56:36.459Z,18.23
2022-08-02T06:02:13.440Z,18.29
2022-08-02T06:04:53.003Z,18.36
2022-08-02T06:07:21.258Z,18.46
2022-08-02T06:09:50.122Z,18.55
2022-08-02T06:12:19.807Z,18.63
2022-08-02T06:14:51.396Z,18.53
2022-08-02T06:17:23.033Z,18.63
2022-08-02T06:19:52.699Z,18.86
2022-08-02T06:22:34.781Z,18.81
2022-08-02T06:25:06.303Z,18.95
2022-08-02T06:27:36.194Z,19.02
2022-08-02T06:30:04.848Z,19.13
2022-08-02T06:32:33.494Z,19.23
2022-08-02T06:35:01.937Z,19.15
2022-08-02T06:37:37.029Z,19.16
2022-08-02T06:40:08.174Z,19.26
2022-08-02T06:42:43.152Z,19.26
2022-08-02T06:45:11.443Z,19.53
2022-08-02T06:47:39.786Z,19.68
2022-08-02T06:50:09.052Z,19.74
2022-08-02T06:52:37.370Z,19.59
2022-08-02T06:55:06.666Z,19.61
2022-08-02T06:57:35.092Z,19.63
2022-08-02T07:00:08.839Z,19.72
2022-08-02T07:02:37.224Z,19.78
2022-08-02T07:05:05.954Z,20.08
2022-08-02T07:07:34.268Z,19.99
2022-08-02T07:10:02.506Z,19.97
2022-08-02T07:12:31.719Z,20.00
2022-08-02T07:15:00.403Z,20.32
2022-08-02T07:17:30.151Z,20.51
2022-08-02T07:19:58.943Z,20.45
2022-08-02T07:22:28.864Z,20.36
2022-08-02T07:24:57.861Z,20.42
2022-08-02T07:27:26.251Z,20.61
2022-08-02T07:29:54.850Z,20.53
2022-08-02T07:32:24.267Z,20.53
2022-08-02T07:34:55.085Z,20.91
2022-08-02T07:37:35.264Z,20.94
2022-08-02T07:40:15.373Z,21.08
2022-08-02T07:42:48.801Z,21.18
2022-08-02T07:45:17.181Z,21.28
2022-08-02T07:47:45.758Z,21.30
2022-08-02T07:50:16.875Z,21.32
2022-08-02T07:52:46.012Z,21.27
2022-08-02T07:55:16.091Z,21.56
2022-08-02T07:57:46.655Z,21.49
2022-08-02T08:00:17.559Z,21.46
2022-08-02T08:02:46.380Z,21.45
2022-08-02T08:05:16.159Z,21.67
2022-08-02T08:07:44.614Z,21.99
2022-08-02T08:10:12.995Z,22.15
2022-08-02T08:12:42.296Z,21.67
2022-08-02T08:15:11.778Z,21.64
2022-08-02T08:17:40.102Z,21.87
2022-08-02T08:20:14.018Z,21.98
2022-08-02T08:22:46.959Z,22.19
2022-08-02T08:25:15.327Z,22.22
2022-08-02T08:27:50.142Z,22.02
2022-08-02T08:30:18.582Z,22.47
2022-08-02T08:32:47.202Z,22.51
2022-08-02T08:35:15.542Z,22.38
2022-08-02T08:37:45.366Z,22.61
2022-08-02T08:40:19.471Z,22.85
2022-08-02T08:42:48.995Z,23.02
2022-08-02T08:45:18.232Z,22.92
2022-08-02T08:47:46.872Z,23.09
2022-08-02T08:50:22.865Z,23.24
2022-08-02T08:53:07.686Z,23.03
2022-08-02T08:55:36.733Z,23.19
2022-08-02T08:58:06.471Z,23.19
2022-08-02T09:00:35.937Z,23.35
2022-08-02T09:03:04.868Z,23.42
2022-08-02T09:05:33.202Z,23.45
2022-08-02T09:08:03.058Z,23.48
2022-08-02T09:10:34.729Z,23.40
2022-08-02T09:13:38.811Z,23.41
2022-08-02T09:16:11.327Z,23.74
2022-08-02T09:18:43.965Z,23.87
2022-08-02T09:21:12.481Z,23.69
2022-08-02T09:23:43.004Z,23.84
2022-08-02T09:26:15.085Z,23.63
2022-08-02T09:28:48.925Z,23.90
2022-08-02T09:31:27.163Z,23.76
2022-08-02T09:34:27.191Z,23.93
2022-08-02T09:36:56.148Z,24.30
2022-08-02T09:39:26.581Z,23.96
2022-08-02T09:41:55.173Z,24.14
2022-08-02T09:44:40.929Z,24.02
2022-08-02T09:47:31.114Z,24.13
2022-08-02T09:53:00.157Z,24.19
2022-08-02T09:55:28.728Z,24.50
2022-08-02T09:57:57.012Z,24.57
2022-08-02T10:00:37.428Z,24.56
2022-08-02T10:03:22.181Z,24.61
2022-08-02T10:06:09.904Z,24.84
2022-08-02T10:08:41.153Z,24.93
2022-08-02T10:11:09.446Z,24.96
2022-08-02T10:13:37.948Z,25.08
2022-08-02T10:16:07.534Z,25.04
2022-08-02T10:18:40.640Z,25.07
2022-08-02T10:21:16.041Z,25.18
2022-08-02T10:23:46.746Z,25.15
2022-08-02T10:26:17.681Z,25.31
2022-08-02T10:28:48.157Z,25.50
2022-08-02T10:31:17.262Z,25.41
2022-08-02T10:33:50.252Z,25.68
2022-08-02T10:36:18.828Z,26.08
2022-08-02T10:39:06.260Z,25.75
2022-08-02T10:41:45.492Z,26.05
2022-08-02T10:44:24.306Z,26.05
2022-08-02T10:46:53.892Z,26.01
2022-08-02T10:49:39.866Z,25.65
2022-08-02T10:52:10.460Z,25.71
2022-08-02T10:54:41.430Z,25.67
2022-08-02T10:57:25.291Z,25.87
2022-08-02T11:00:12.608Z,25.94
2022-08-02T11:03:04.796Z,26.29
2022-08-02T11:05:42.987Z,26.46
2022-08-02T11:08:19.969Z,26.21
2022-08-02T11:10:49.865Z,26.58
2022-08-02T11:13:19.817Z,26.59
2022-08-02T11:15:51.096Z,26.65
2022-08-02T11:18:43.672Z,26.60
2022-08-02T11:21:22.937Z,26.45
2022-08-02T11:23:51.642Z,26.72
2022-08-02T11:26:46.608Z,26.73
2022-08-02T11:29:15.882Z,26.83
2022-08-02T11:31:46.229Z,26.76
2022-08-02T11:34:26.618Z,27.31
2022-08-02T11:37:03.423Z,27.49
2022-08-02T11:39:31.908Z,27.52
2022-08-02T11:42:01.959Z,27.70
2022-08-02T13:35:18.038Z,28.87
2022-08-02T13:37:47.967Z,28.66
2022-08-02T13:40:23.464Z,28.70
2022-08-02T13:42:53.917Z,28.92
2022-08-02T13:45:22.628Z,28.86
2022-08-02T13:47:57.623Z,29.12
2022-08-02T13:50:34.778Z,28.62
2022-08-02T13:53:03.376Z,28.82
2022-08-02T13:55:31.961Z,28.92
2022-08-02T13:58:09.332Z,28.98
2022-08-02T14:00:37.610Z,29.08
2022-08-02T14:03:07.550Z,29.04
2022-08-02T14:05:47.179Z,29.29
2022-08-02T14:08:18.009Z,29.00
2022-08-02T14:10:47.103Z,29.08
2022-08-02T14:13:15.496Z,29.09
2022-08-02T14:15:44.210Z,29.10
2022-08-02T14:18:12.552Z,28.97
2022-08-02T14:20:42.286Z,29.17
2022-08-02T14:23:10.576Z,29.11
2022-08-02T14:25:38.852Z,29.38
2022-08-02T14:28:11.148Z,29.38
2022-08-02T14:30:42.557Z,29.31
2022-08-02T14:33:11.125Z,28.93
2022-08-02T14:35:39.677Z,29.23
2022-08-02T14:38:09.417Z,29.20
2022-08-02T14:40:37.728Z,29.19
2022-08-02T14:43:06.218Z,29.46
2022-08-02T14:45:40.760Z,29.45
2022-08-02T14:48:11.366Z,29.65
2022-08-02T14:50:39.950Z,29.38
2022-08-02T14:53:12.383Z,29.62
2022-08-02T14:55:44.837Z,29.64
2022-08-02T14:58:13.334Z,29.41
2022-08-02T15:00:43.786Z,29.58
2022-08-02T15:03:13.236Z,29.70
2022-08-02T15:05:41.618Z,29.81
2022-08-02T15:08:11.267Z,29.83
2022-08-02T15:10:45.727Z,29.92
2022-08-02T15:13:14.073Z,29.82
2022-08-02T15:15:43.740Z,29.99
2022-08-02T15:18:14.911Z,30.01
2022-08-02T15:20:50.771Z,29.98
2022-08-02T15:23:37.575Z,30.10
2022-08-02T15:26:07.414Z,29.98
2022-08-02T15:28:35.737Z,29.77
2022-08-02T15:31:04.422Z,29.98
2022-08-02T15:33:32.948Z,30.05
2022-08-02T15:36:01.565Z,29.94
2022-08-02T15:38:31.210Z,29.79
2022-08-02T15:40:59.509Z,30.09
2022-08-02T15:43:27.783Z,30.16
2022-08-02T15:46:14.672Z,30.04
2022-08-02T15:48:43.394Z,30.08
2022-08-02T15:51:12.026Z,29.95
2022-08-02T15:53:41.704Z,29.99
2022-08-02T15:56:13.045Z,30.16
2022-08-02T15:58:42.562Z,30.27
2022-08-02T16:01:13.004Z,29.94
2022-08-02T16:03:41.401Z,30.12
2022-08-02T16:06:09.684Z,30.21
2022-08-02T16:08:38.285Z,30.12
2022-08-02T16:11:17.523Z,30.10
2022-08-02T16:13:54.884Z,29.98
2022-08-02T16:16:23.636Z,29.98
2022-08-02T16:18:52.062Z,29.92
2022-08-02T16:21:20.658Z,29.58
2022-08-02T16:24:00.472Z,29.85
2022-08-02T16:26:33.278Z,29.93
2022-08-02T16:29:01.796Z,29.65
2022-08-02T16:31:30.073Z,29.62
2022-08-02T16:33:58.668Z,29.46
2022-08-02T16:36:27.344Z,29.56
2022-08-02T16:38:55.695Z,29.48
2022-08-02T16:41:24.117Z,29.56
2022-08-02T16:44:13.798Z,29.34
2022-08-02T16:46:45.125Z,29.27
2022-08-02T16:50:06.078Z,29.06
2022-08-02T16:52:02.352Z,29.16
2022-08-02T16:54:31.055Z,29.18
2022-08-02T16:56:59.336Z,28.84
2022-08-02T16:59:34.050Z,28.77
2022-08-02T17:02:15.135Z,29.07
2022-08-02T17:04:53.098Z,28.84
2022-08-02T17:07:21.372Z,28.72
2022-08-02T17:10:10.224Z,28.73
2022-08-02T17:12:38.880Z,28.65
2022-08-02T17:15:53.028Z,28.67
2022-08-02T17:17:58.158Z,28.56
2022-08-02T17:20:26.608Z,28.59
2022-08-02T17:22:54.923Z,28.17
2022-08-02T17:25:24.791Z,28.37
2022-08-02T17:27:55.985Z,28.23
2022-08-02T17:30:26.882Z,28.09
2022-08-02T17:33:13.985Z,28.09
2022-08-02T17:35:51.991Z,27.88
2022-08-02T17:41:15.255Z,28.12
2022-08-02T17:43:44.153Z,28.00
2022-08-02T17:46:14.368Z,27.87
2022-08-02T17:48:56.922Z,27.92
2022-08-02T17:52:16.115Z,27.93
2022-08-02T17:54:18.743Z,27.89
2022-08-02T17:56:47.322Z,27.82
2022-08-02T17:59:20.909Z,27.93
2022-08-02T18:01:54.314Z,27.84
2022-08-02T18:04:27.450Z,27.52
2022-08-02T18:06:57.250Z,27.63
2022-08-02T18:09:26.059Z,27.42
2022-08-02T18:11:55.150Z,27.46
2022-08-02T18:14:24.470Z,27.53
2022-08-02T18:16:56.441Z,27.57
2022-08-02T18:19:42.651Z,27.42
2022-08-02T18:22:14.634Z,27.38
2022-08-02T18:24:44.921Z,27.40
2022-08-02T18:27:14.225Z,27.35
2022-08-02T18:29:42.484Z,27.35
2022-08-02T18:32:12.479Z,27.18
2022-08-02T18:34:40.962Z,27.13
2022-08-02T18:37:15.985Z,27.15
2022-08-02T18:39:51.421Z,27.01
2022-08-02T18:42:20.198Z,26.87
2022-08-02T18:44:48.791Z,26.73
2022-08-02T18:47:18.441Z,26.64
2022-08-02T18:49:51.506Z,26.64
2022-08-02T18:52:31.432Z,26.73
2022-08-02T18:55:00.410Z,26.60
2022-08-02T18:58:17.527Z,26.66
2022-08-02T19:00:20.479Z,26.55
2022-08-02T19:02:50.409Z,26.48
2022-08-02T19:05:21.126Z,26.37
2022-08-02T19:07:49.776Z,26.32
2022-08-02T19:10:19.856Z,26.13
2022-08-02T19:12:51.590Z,26.07
2022-08-02T19:15:20.442Z,26.04
2022-08-02T19:17:55.673Z,25.98
2022-08-02T19:20:25.544Z,25.84
2022-08-02T19:22:54.323Z,25.71
2022-08-02T19:25:27.849Z,25.65
2022-08-02T19:27:57.591Z,25.56
2022-08-02T19:30:27.772Z,25.35
2022-08-02T19:32:58.950Z,25.32
2022-08-02T19:35:29.508Z,25.29
2022-08-02T19:38:07.593Z,25.25
2022-08-02T19:40:56.321Z,24.96
2022-08-02T19:44:25.692Z,25.00
2022-08-02T19:46:15.899Z,24.97
2022-08-02T19:48:47.435Z,24.91
2022-08-02T19:51:16.174Z,24.80
2022-08-02T19:54:04.392Z,24.75
2022-08-02T19:56:32.839Z,24.69
2022-08-02T19:59:12.959Z,24.60
2022-08-02T20:01:48.505Z,24.50
2022-08-02T20:07:11.689Z,24.30
2022-08-02T20:09:53.190Z,24.26
2022-08-02T20:12:21.753Z,24.23
2022-08-02T20:14:51.079Z,24.18
2022-08-02T20:17:20.914Z,24.13
2022-08-02T20:19:51.363Z,24.09
2022-08-02T20:22:20.557Z,24.02
2022-08-02T20:24:49.004Z,23.97
2022-08-02T20:27:23.044Z,23.95
2022-08-02T20:29:52.474Z,23.85
2022-08-02T20:32:38.235Z,23.83
2022-08-02T20:35:08.710Z,23.79
2022-08-02T20:38:00.972Z,23.72
2022-08-02T20:40:25.593Z,23.63
2022-08-02T20:42:54.266Z,23.59
2022-08-02T20:45:23.330Z,23.55
2022-08-02T20:48:00.056Z,23.53
2022-08-02T20:50:44.023Z,23.45
2022-08-02T20:53:23.798Z,23.27
2022-08-02T20:55:55.958Z,23.28
2022-08-02T20:58:26.540Z,23.25
2022-08-02T21:00:59.450Z,23.23
2022-08-02T21:03:39.144Z,23.20
2022-08-02T21:06:11.544Z,23.14
2022-08-02T21:08:45.978Z,23.13
2022-08-02T21:11:15.296Z,23.10
2022-08-02T21:13:47.227Z,23.06
2022-08-02T21:16:31.866Z,23.04
2022-08-02T21:19:02.503Z,22.99
2022-08-02T21:21:32.162Z,22.99
2022-08-02T21:24:01.521Z,22.99
2022-08-02T21:26:31.123Z,22.87
2022-08-02T21:29:03.674Z,22.87
2022-08-02T21:31:35.665Z,22.86
2022-08-02T21:34:21.865Z,22.81
2022-08-02T21:36:54.043Z,22.75
2022-08-02T21:39:22.486Z,22.71
2022-08-02T21:41:51.334Z,22.68
2022-08-02T21:44:21.033Z,22.60
2022-08-02T21:46:50.245Z,22.52
2022-08-02T21:49:20.075Z,22.51
2022-08-02T21:51:49.406Z,22.40
2022-08-02T21:54:21.181Z,22.34
2022-08-02T21:56:52.266Z,22.38
2022-08-02T21:59:26.344Z,22.28
2022-08-02T22:01:56.778Z,22.29
2022-08-02T22:04:26.187Z,22.28
2022-08-02T22:06:55.373Z,22.22
2022-08-02T22:09:44.309Z,22.23
2022-08-02T22:12:18.319Z,22.08
2022-08-02T22:14:53.718Z,22.14
2022-08-02T22:17:52.007Z,22.06
2022-08-02T22:20:13.747Z,21.90
2022-08-02T22:22:42.328Z,21.97
2022-08-02T22:25:21.432Z,21.98
2022-08-02T22:28:11.917Z,21.93
2022-08-02T22:33:59.909Z,21.72
2022-08-02T22:36:30.065Z,21.64
2022-08-02T22:38:58.646Z,21.71
2022-08-02T22:42:06.428Z,21.74
2022-08-02T22:44:18.414Z,21.66
2022-08-02T22:49:38.656Z,21.67
2022-08-02T22:52:20.992Z,21.64
2022-08-02T22:54:49.541Z,21.63
2022-08-02T22:58:39.406Z,28.08
2022-08-02T22:58:54.319Z,24.43
2022-08-02T22:59:09.787Z,21.65
2022-08-02T22:59:10.024Z,21.56
2022-08-02T22:59:10.864Z,21.92
2022-08-02T23:00:10.174Z,21.56
2022-08-02T23:02:38.578Z,21.54
2022-08-02T23:05:07.163Z,21.45
2022-08-02T23:07:37.031Z,21.50
2022-08-02T23:10:08.138Z,21.47
2022-08-02T23:12:37.910Z,21.48
2022-08-02T23:15:06.660Z,21.45
2022-08-02T23:17:49.081Z,21.43
2022-08-02T23:20:21.258Z,21.37
2022-08-02T23:22:49.536Z,21.41
2022-08-02T23:25:18.137Z,21.39
2022-08-02T23:27:50.466Z,21.32
2022-08-02T23:30:18.990Z,21.28
2022-08-02T23:32:47.559Z,21.28
2022-08-02T23:35:16.895Z,21.22
2022-08-02T23:38:00.375Z,21.15
2022-08-02T23:40:39.153Z,21.12
2022-08-02T23:43:13.641Z,21.15
2022-08-02T23:45:45.475Z,21.12
2022-08-02T23:48:13.819Z,21.07
2022-08-02T23:50:42.395Z,21.11
2022-08-02T23:53:10.648Z,21.10
2022-08-02T23:55:38.936Z,21.14
2022-08-02T23:58:07.185Z,21.14
